createdAt,value
2023-09-19T00:00:09.458Z,98997.75
2023-09-19T00:00:22.736Z,98995.84
2023-09-19T00:00:34.963Z,98995.34
2023-09-19T00:00:50.819Z,98993.56
2023-09-19T00:01:08.595Z,98997.16
2023-09-19T00:01:21.746Z,98997.03
2023-09-19T00:01:34.022Z,98995.13
2023-09-19T00:01:46.929Z,98995.84
2023-09-19T00:01:59.275Z,99003.97
2023-09-19T00:02:12.424Z,98992.50
2023-09-19T00:02:24.595Z,98996.91
2023-09-19T00:02:37.891Z,98999.44
2023-09-19T00:03:02.388Z,99000.91
2023-09-19T00:03:14.579Z,99000.91
2023-09-19T00:03:26.982Z,98999.25
2023-09-19T00:03:40.021Z,98997.44
2023-09-19T00:03:52.597Z,99000.91
2023-09-19T00:04:10.791Z,98997.31
2023-09-19T00:04:30.081Z,98997.06
2023-09-19T00:04:44.132Z,99004.75
2023-09-19T00:04:56.173Z,99000.19
2023-09-19T00:05:09.902Z,99000.19
2023-09-19T00:05:26.229Z,98997.47
2023-09-19T00:05:46.196Z,99008.00
2023-09-19T00:05:59.606Z,99008.81
2023-09-19T00:06:11.623Z,98998.75
2023-09-19T00:06:26.937Z,98999.47
2023-09-19T00:06:38.920Z,98999.47
2023-09-19T00:06:51.252Z,99002.94
2023-09-19T00:07:03.897Z,99003.78
2023-09-19T00:07:17.269Z,99002.13
2023-09-19T00:07:29.325Z,99003.16
2023-09-19T00:07:41.604Z,99004.13
2023-09-19T00:07:55.709Z,99006.16
2023-09-19T00:08:08.232Z,99000.06
2023-09-19T00:08:25.177Z,98998.97
2023-09-19T00:08:37.178Z,99003.53
2023-09-19T00:08:49.155Z,99000.69
2023-09-19T00:09:01.210Z,99011.22
2023-09-19T00:09:13.288Z,99000.69
2023-09-19T00:09:28.493Z,99004.25
2023-09-19T00:09:40.460Z,99001.63
2023-09-19T00:09:52.490Z,99000.69
2023-09-19T00:10:05.745Z,99006.16
2023-09-19T00:10:18.153Z,99001.00
2023-09-19T00:10:32.193Z,99011.66
2023-09-19T00:10:44.838Z,99006.38
2023-09-19T00:10:57.614Z,98999.44
2023-09-19T00:11:12.110Z,98996.69
2023-09-19T00:11:27.113Z,99005.22
2023-09-19T00:11:39.588Z,99001.13
2023-09-19T00:11:52.561Z,99000.25
2023-09-19T00:12:07.956Z,98997.28
2023-09-19T00:12:19.961Z,99003.25
2023-09-19T00:12:32.704Z,99002.31
2023-09-19T00:12:44.863Z,98994.41
2023-09-19T00:12:57.462Z,98998.09
2023-09-19T00:13:13.943Z,99003.00
2023-09-19T00:13:26.033Z,99003.72
2023-09-19T00:13:38.252Z,99006.34
2023-09-19T00:13:51.273Z,98998.47
2023-09-19T00:14:03.662Z,99003.84
2023-09-19T00:14:15.675Z,99000.16
2023-09-19T00:14:27.687Z,99000.97
2023-09-19T00:14:39.715Z,99003.72
2023-09-19T00:14:52.714Z,99001.19
2023-09-19T00:15:05.309Z,99003.72
2023-09-19T00:15:18.743Z,99000.38
2023-09-19T00:15:31.217Z,99002.06
2023-09-19T00:15:51.860Z,99002.06
2023-09-19T00:16:12.006Z,98999.91
2023-09-19T00:16:24.155Z,99001.59
2023-09-19T00:16:37.338Z,98999.91
2023-09-19T00:16:50.781Z,99001.59
2023-09-19T00:17:09.296Z,99006.13
2023-09-19T00:17:21.865Z,99003.50
2023-09-19T00:17:33.913Z,99002.63
2023-09-19T00:17:46.017Z,99006.00
2023-09-19T00:17:58.190Z,99004.94
2023-09-19T00:18:10.324Z,99000.72
2023-09-19T00:18:23.658Z,99014.03
2023-09-19T00:18:36.958Z,99007.91
2023-09-19T00:18:50.100Z,99012.13
2023-09-19T00:19:02.181Z,99006.97
2023-09-19T00:19:15.190Z,99007.91
2023-09-19T00:19:27.780Z,99005.16
2023-09-19T00:19:39.806Z,99008.53
2023-09-19T00:19:54.146Z,99008.28
2023-09-19T00:20:12.683Z,99001.34
2023-09-19T00:20:25.323Z,99009.25
2023-09-19T00:20:38.681Z,99008.28
2023-09-19T00:20:52.506Z,99004.81
2023-09-19T00:21:08.875Z,99017.13
2023-09-19T00:21:21.441Z,99007.69
2023-09-19T00:21:33.565Z,99006.13
2023-09-19T00:21:46.942Z,99003.63
2023-09-19T00:21:59.079Z,99007.06
2023-09-19T00:22:11.923Z,99010.69
2023-09-19T00:22:27.528Z,99007.91
2023-09-19T00:22:45.828Z,99008.53
2023-09-19T00:23:00.193Z,99011.66
2023-09-19T00:23:12.337Z,99011.66
2023-09-19T00:23:25.600Z,99009.03
2023-09-19T00:23:38.374Z,99008.03
2023-09-19T00:23:52.632Z,99015.03
2023-09-19T00:24:06.964Z,99013.13
2023-09-19T00:24:19.537Z,99017.41
2023-09-19T00:24:32.272Z,99014.78
2023-09-19T00:24:44.245Z,99015.50
2023-09-19T00:24:56.457Z,99014.56
2023-09-19T00:25:08.716Z,99009.28
2023-09-19T00:25:21.454Z,99017.19
2023-09-19T00:25:33.569Z,99009.50
2023-09-19T00:25:46.403Z,99013.13
2023-09-19T00:26:02.049Z,99012.25
2023-09-19T00:26:14.016Z,99015.63
2023-09-19T00:26:25.993Z,99024.38
2023-09-19T00:26:39.259Z,99016.47
2023-09-19T00:26:51.312Z,99017.53
2023-09-19T00:27:03.504Z,99021.97
2023-09-19T00:27:15.589Z,99013.13
2023-09-19T00:27:27.513Z,99021.84
2023-09-19T00:27:43.281Z,99020.06
2023-09-19T00:27:55.787Z,99025.09
2023-09-19T00:28:08.686Z,99023.19
2023-09-19T00:28:20.974Z,99024.00
2023-09-19T00:28:33.412Z,99021.50
2023-09-19T00:28:45.672Z,99023.28
2023-09-19T00:28:58.376Z,99024.13
2023-09-19T00:29:10.334Z,99027.59
2023-09-19T00:29:24.402Z,99024.94
2023-09-19T00:29:36.358Z,99026.66
2023-09-19T00:29:48.948Z,99021.28
2023-09-19T00:30:01.468Z,99020.56
2023-09-19T00:30:22.726Z,99024.00
2023-09-19T00:30:36.240Z,99029.88
2023-09-19T00:30:51.368Z,99025.34
2023-09-19T00:31:03.771Z,99029.63
2023-09-19T00:31:15.902Z,99024.16
2023-09-19T00:31:28.247Z,99026.06
2023-09-19T00:31:40.680Z,99028.81
2023-09-19T00:31:52.733Z,99026.28
2023-09-19T00:32:06.473Z,99022.59
2023-09-19T00:32:18.541Z,99029.63
2023-09-19T00:32:33.152Z,99027.00
2023-09-19T00:32:45.579Z,99032.03
2023-09-19T00:32:58.047Z,99028.91
2023-09-19T00:33:12.489Z,99033.34
2023-09-19T00:33:25.403Z,99027.97
2023-09-19T00:33:37.739Z,99030.50
2023-09-19T00:33:49.913Z,99030.25
2023-09-19T00:34:07.658Z,99031.06
2023-09-19T00:34:19.842Z,99032.75
2023-09-19T00:34:32.185Z,99027.97
2023-09-19T00:34:44.158Z,99036.81
2023-09-19T00:34:57.398Z,99030.72
2023-09-19T00:35:12.477Z,99033.72
2023-09-19T00:35:27.149Z,99030.38
2023-09-19T00:35:39.079Z,99028.44
2023-09-19T00:35:52.785Z,99024.84
2023-09-19T00:36:06.636Z,99033.00
2023-09-19T00:36:19.528Z,99023.19
2023-09-19T00:36:31.456Z,99030.38
2023-09-19T00:36:44.373Z,99035.38
2023-09-19T00:36:56.870Z,99030.81
2023-09-19T00:37:08.856Z,99029.88
2023-09-19T00:37:20.878Z,99030.50
2023-09-19T00:37:32.902Z,99031.31
2023-09-19T00:37:44.948Z,99030.84
2023-09-19T00:37:57.024Z,99027.50
2023-09-19T00:38:08.958Z,99024.97
2023-09-19T00:38:22.467Z,99025.22
2023-09-19T00:38:34.498Z,99028.81
2023-09-19T00:38:47.542Z,99031.31
2023-09-19T00:38:59.512Z,99029.63
2023-09-19T00:39:11.775Z,99027.97
2023-09-19T00:39:27.871Z,99023.78
2023-09-19T00:39:39.868Z,99033.25
2023-09-19T00:39:51.942Z,99034.19
2023-09-19T00:40:06.731Z,99027.38
2023-09-19T00:40:19.361Z,99033.47
2023-09-19T00:40:31.668Z,99028.19
2023-09-19T00:40:47.322Z,99022.09
2023-09-19T00:41:01.877Z,99030.09
2023-09-19T00:41:13.950Z,99027.72
2023-09-19T00:41:26.092Z,99030.09
2023-09-19T00:41:38.102Z,99021.50
2023-09-19T00:41:50.159Z,99027.59
2023-09-19T00:42:06.138Z,99028.56
2023-09-19T00:42:22.588Z,99032.03
2023-09-19T00:42:34.785Z,99030.09
2023-09-19T00:42:48.001Z,99031.19
2023-09-19T00:43:02.605Z,99032.28
2023-09-19T00:43:14.734Z,99028.44
2023-09-19T00:43:28.735Z,99033.72
2023-09-19T00:43:41.534Z,99028.66
2023-09-19T00:43:53.739Z,99039.19
2023-09-19T00:44:06.170Z,99032.84
2023-09-19T00:44:19.401Z,99040.66
2023-09-19T00:44:31.413Z,99032.84
2023-09-19T00:44:44.434Z,99035.63
2023-09-19T00:44:56.397Z,99044.25
2023-09-19T00:45:13.082Z,99035.38
2023-09-19T00:45:25.225Z,99030.22
2023-09-19T00:45:43.498Z,99045.91
2023-09-19T00:45:57.495Z,99042.34
2023-09-19T00:46:09.818Z,99033.94
2023-09-19T00:46:22.419Z,99035.63
2023-09-19T00:46:34.718Z,99034.53
2023-09-19T00:46:50.431Z,99035.63
2023-09-19T00:47:03.531Z,99036.81
2023-09-19T00:47:18.782Z,99035.47
2023-09-19T00:47:31.278Z,99033.19
2023-09-19T00:47:46.940Z,99035.81
2023-09-19T00:48:04.968Z,99038.66
2023-09-19T00:48:18.367Z,99036.88
2023-09-19T00:48:31.492Z,99035.09
2023-09-19T00:48:47.161Z,99043.72
2023-09-19T00:49:00.149Z,99036.53
2023-09-19T00:49:13.086Z,99037.13
2023-09-19T00:49:26.695Z,99039.56
2023-09-19T00:49:39.346Z,99039.31
2023-09-19T00:49:51.457Z,99035.03
2023-09-19T00:50:05.598Z,99041.44
2023-09-19T00:50:19.694Z,99035.34
2023-09-19T00:50:33.340Z,99038.72
2023-09-19T00:50:48.834Z,99032.50
2023-09-19T00:51:05.797Z,99038.31
2023-09-19T00:51:21.367Z,99041.81
2023-09-19T00:51:33.395Z,99039.91
2023-09-19T00:51:48.223Z,99040.63
2023-09-19T00:52:00.910Z,99033.75
2023-09-19T00:52:13.403Z,99036.28
2023-09-19T00:52:26.430Z,99037.88
2023-09-19T00:52:39.694Z,99038.81
2023-09-19T00:52:57.003Z,99046.63
2023-09-19T00:53:10.846Z,99042.28
2023-09-19T00:53:24.945Z,99041.38
2023-09-19T00:53:37.020Z,99046.81
2023-09-19T00:53:49.058Z,99041.56
2023-09-19T00:54:01.140Z,99037.13
2023-09-19T00:54:19.091Z,99041.38
2023-09-19T00:54:31.155Z,99036.09
2023-09-19T00:54:43.093Z,99047.53
2023-09-19T00:54:55.796Z,99038.72
2023-09-19T00:55:09.549Z,99041.38
2023-09-19T00:55:21.747Z,99034.28
2023-09-19T00:55:34.016Z,99041.38
2023-09-19T00:55:47.789Z,99045.88
2023-09-19T00:55:59.845Z,99045.16
2023-09-19T00:56:12.244Z,99041.56
2023-09-19T00:56:24.369Z,99043.25
2023-09-19T00:56:39.006Z,99047.91
2023-09-19T00:56:52.055Z,99040.34
2023-09-19T00:57:04.569Z,99043.09
2023-09-19T00:57:18.476Z,99042.50
2023-09-19T00:57:33.997Z,99046.91
2023-09-19T00:57:46.389Z,99042.28
2023-09-19T00:57:58.557Z,99047.53
2023-09-19T00:58:11.538Z,99043.94
2023-09-19T00:58:23.843Z,99049.19
2023-09-19T00:58:38.275Z,99044.91
2023-09-19T00:58:50.513Z,99040.56
2023-09-19T00:59:02.508Z,99040.56
2023-09-19T00:59:14.513Z,99039.84
2023-09-19T00:59:26.461Z,99040.56
2023-09-19T00:59:38.497Z,99048.47
2023-09-19T00:59:52.889Z,99044.75
2023-09-19T01:00:08.169Z,99042.03
2023-09-19T01:00:21.902Z,99047.41
2023-09-19T01:00:35.237Z,99049.19
2023-09-19T01:00:49.591Z,99044.19
2023-09-19T01:01:02.427Z,99044.28
2023-09-19T01:01:15.781Z,99053.75
2023-09-19T01:01:28.838Z,99047.75
2023-09-19T01:01:41.099Z,99043.22
2023-09-19T01:01:55.264Z,99045.22
2023-09-19T01:02:07.591Z,99054.72
2023-09-19T01:02:19.887Z,99049.66
2023-09-19T01:02:32.986Z,99049.88
2023-09-19T01:02:45.949Z,99046.06
2023-09-19T01:02:58.189Z,99047.88
2023-09-19T01:03:10.938Z,99053.97
2023-09-19T01:03:23.780Z,99053.84
2023-09-19T01:03:36.263Z,99056.13
2023-09-19T01:03:48.391Z,99048.94
2023-09-19T01:04:00.764Z,99049.88
2023-09-19T01:04:14.044Z,99054.31
2023-09-19T01:04:26.415Z,99053.22
2023-09-19T01:04:38.625Z,99056.84
2023-09-19T01:04:50.931Z,99051.69
2023-09-19T01:05:05.332Z,99056.00
2023-09-19T01:05:18.115Z,99055.16
2023-09-19T01:05:33.292Z,99054.66
2023-09-19T01:05:45.425Z,99053.47
2023-09-19T01:05:57.431Z,99058.25
2023-09-19T01:06:09.732Z,99054.88
2023-09-19T01:06:22.042Z,99059.31
2023-09-19T01:06:34.076Z,99059.31
2023-09-19T01:06:47.043Z,99059.22
2023-09-19T01:06:59.165Z,99051.31
2023-09-19T01:07:11.802Z,99054.66
2023-09-19T01:07:24.169Z,99055.28
2023-09-19T01:07:37.132Z,99053.47
2023-09-19T01:07:50.046Z,99053.22
2023-09-19T01:08:02.405Z,99059.69
2023-09-19T01:08:14.432Z,99058.97
2023-09-19T01:08:30.676Z,99050.13
2023-09-19T01:08:42.602Z,99052.41
2023-09-19T01:08:56.834Z,99057.56
2023-09-19T01:09:09.415Z,99061.84
2023-09-19T01:09:22.062Z,99053.03
2023-09-19T01:09:35.737Z,99063.03
2023-09-19T01:09:47.831Z,99059.47
2023-09-19T01:10:00.461Z,99058.38
2023-09-19T01:10:15.425Z,99056.59
2023-09-19T01:10:27.613Z,99060.19
2023-09-19T01:10:52.774Z,99062.09
2023-09-19T01:11:33.787Z,99063.75
2023-09-19T01:11:49.201Z,99070.72
2023-09-19T01:12:05.785Z,99063.75
2023-09-19T01:12:26.480Z,99062.72
2023-09-19T01:13:06.168Z,99067.88
2023-09-19T01:13:32.782Z,99066.91
2023-09-19T01:14:36.582Z,99071.44
2023-09-19T01:15:07.881Z,99059.38
2023-09-19T01:15:44.046Z,99057.66
2023-09-19T01:16:07.190Z,99061.38
2023-09-19T01:16:40.603Z,99063.41
2023-09-19T01:17:02.858Z,99062.56
2023-09-19T01:17:49.962Z,99062.06
2023-09-19T01:18:12.374Z,99066.84
2023-09-19T01:18:24.335Z,99068.50
2023-09-19T01:18:47.937Z,99063.84
2023-09-19T01:19:21.235Z,99067.59
2023-09-19T01:19:54.857Z,99064.22
2023-09-19T01:20:08.998Z,99067.59
2023-09-19T01:20:35.118Z,99072.84
2023-09-19T01:21:07.486Z,99070.94
2023-09-19T01:21:51.667Z,99067.13
2023-09-19T01:22:43.185Z,99069.03
2023-09-19T01:23:03.274Z,99074.75
2023-09-19T01:23:22.765Z,99069.88
2023-09-19T01:23:40.568Z,99067.13
2023-09-19T01:24:11.413Z,99070.97
2023-09-19T01:24:51.400Z,99062.25
2023-09-19T01:25:41.099Z,99064.72
2023-09-19T01:26:11.919Z,99063.66
2023-09-19T01:27:15.412Z,99074.28
2023-09-19T01:27:52.319Z,99068.56
2023-09-19T01:28:30.887Z,99066.66
2023-09-19T01:28:42.803Z,99067.38
2023-09-19T01:29:14.311Z,99067.38
2023-09-19T01:29:40.694Z,99062.31
2023-09-19T01:29:53.067Z,99064.22
2023-09-19T01:30:11.216Z,99064.84
2023-09-19T01:30:28.679Z,99062.09
2023-09-19T01:30:45.168Z,99075.16
2023-09-19T01:31:01.698Z,99070.50
2023-09-19T01:31:15.553Z,99073.25
2023-09-19T01:31:31.315Z,99068.09
2023-09-19T01:31:44.088Z,99069.03
2023-09-19T01:32:02.605Z,99069.75
2023-09-19T01:32:20.795Z,99066.91
2023-09-19T01:32:33.894Z,99068.47
2023-09-19T01:32:47.435Z,99064.28
2023-09-19T01:33:00.828Z,99070.25
2023-09-19T01:33:12.964Z,99065.59
2023-09-19T01:33:25.064Z,99069.31
2023-09-19T01:34:05.179Z,99070.72
2023-09-19T01:34:17.261Z,99071.19
2023-09-19T01:34:46.690Z,99071.66
2023-09-19T01:35:05.065Z,99075.22
2023-09-19T01:35:17.115Z,99075.72
2023-09-19T01:35:29.077Z,99080.03
2023-09-19T01:35:41.172Z,99076.66
2023-09-19T01:35:59.529Z,99076.44
2023-09-19T01:36:11.522Z,99079.81
2023-09-19T01:36:24.358Z,99080.88
2023-09-19T01:36:37.740Z,99083.00
2023-09-19T01:36:49.876Z,99076.06
2023-09-19T01:37:03.301Z,99075.84
2023-09-19T01:37:20.849Z,99080.88
2023-09-19T01:37:33.052Z,99077.28
2023-09-19T01:37:45.670Z,99080.63
2023-09-19T01:37:57.660Z,99079.56
2023-09-19T01:38:12.688Z,99077.66
2023-09-19T01:38:24.664Z,99073.00
2023-09-19T01:38:36.767Z,99077.22
2023-09-19T01:38:49.551Z,99077.94
2023-09-19T01:39:06.929Z,99082.22
2023-09-19T01:39:20.759Z,99071.09
2023-09-19T01:39:32.896Z,99079.34
2023-09-19T01:39:44.867Z,99078.97
2023-09-19T01:40:21.169Z,99077.06
2023-09-19T01:40:40.672Z,99077.06
2023-09-19T01:41:05.854Z,99084.38
2023-09-19T01:41:26.841Z,99083.66
2023-09-19T01:42:06.556Z,99079.97
2023-09-19T01:42:32.620Z,99085.13
2023-09-19T01:43:09.847Z,99078.66
2023-09-19T01:43:36.681Z,99090.63
2023-09-19T01:43:51.462Z,99080.88
2023-09-19T01:44:07.397Z,99084.94
2023-09-19T01:44:30.155Z,99083.97
2023-09-19T01:45:03.203Z,99084.97
2023-09-19T01:45:26.421Z,99087.50
2023-09-19T01:46:09.486Z,99084.66
2023-09-19T01:46:36.375Z,99090.41
2023-09-19T01:46:48.578Z,99082.22
2023-09-19T01:47:06.645Z,99088.19
2023-09-19T01:47:32.813Z,99085.06
2023-09-19T01:47:52.508Z,99088.63
2023-09-19T01:48:16.726Z,99090.09
2023-09-19T01:48:56.770Z,99089.88
2023-09-19T01:49:11.392Z,99087.25
2023-09-19T01:49:34.468Z,99079.97
2023-09-19T01:49:59.303Z,99082.69
2023-09-19T01:50:33.370Z,99083.16
2023-09-19T01:51:01.990Z,99079.56
2023-09-19T01:51:23.354Z,99086.72
2023-09-19T01:51:47.405Z,99083.38
2023-09-19T01:52:10.634Z,99082.91
2023-09-19T01:52:23.080Z,99079.00
2023-09-19T01:52:43.942Z,99091.09
2023-09-19T01:53:03.843Z,99082.47
2023-09-19T01:53:24.718Z,99082.47
2023-09-19T01:53:45.800Z,99082.81
2023-09-19T01:54:04.884Z,99085.44
2023-09-19T01:54:25.892Z,99083.53
2023-09-19T01:54:48.234Z,99073.84
2023-09-19T01:55:08.401Z,99079.97
2023-09-19T01:55:21.847Z,99079.13
2023-09-19T01:55:44.074Z,99077.22
2023-09-19T01:55:56.711Z,99081.34
2023-09-19T01:56:13.701Z,99086.16
2023-09-19T01:56:41.320Z,99083.63
2023-09-19T01:57:29.678Z,99091.97
2023-09-19T01:58:09.837Z,99091.00
2023-09-19T01:58:40.863Z,99081.59
2023-09-19T01:59:00.396Z,99078.72
2023-09-19T01:59:17.193Z,99090.94
2023-09-19T01:59:36.682Z,99090.34
2023-09-19T02:00:01.766Z,99085.06
2023-09-19T02:00:15.721Z,99089.25
2023-09-19T02:00:30.670Z,99091.41
2023-09-19T02:00:45.344Z,99085.75
2023-09-19T02:00:59.441Z,99095.78
2023-09-19T02:01:16.503Z,99093.16
2023-09-19T02:01:29.441Z,99088.81
2023-09-19T02:01:45.838Z,99095.53
2023-09-19T02:01:59.296Z,99091.25
2023-09-19T02:02:13.260Z,99087.91
2023-09-19T02:02:26.917Z,99084.53
2023-09-19T02:02:41.709Z,99089.06
2023-09-19T02:02:56.804Z,99094.53
2023-09-19T02:03:10.541Z,99092.75
2023-09-19T02:03:26.384Z,99091.47
2023-09-19T02:03:40.999Z,99087.91
2023-09-19T02:03:54.428Z,99086.66
2023-09-19T02:04:06.696Z,99087.28
2023-09-19T02:04:18.776Z,99098.00
2023-09-19T02:04:31.495Z,99090.00
2023-09-19T02:04:43.599Z,99093.16
2023-09-19T02:04:56.235Z,99089.56
2023-09-19T02:05:08.775Z,99089.56
2023-09-19T02:05:34.225Z,99088.09
2023-09-19T02:05:51.414Z,99088.97
2023-09-19T02:06:04.806Z,99090.72
2023-09-19T02:06:18.773Z,99092.88
2023-09-19T02:06:30.796Z,99092.66
2023-09-19T02:06:43.265Z,99087.06
2023-09-19T02:06:56.656Z,99089.56
2023-09-19T02:07:09.508Z,99088.63
2023-09-19T02:07:21.536Z,99091.25
2023-09-19T02:07:34.258Z,99087.53
2023-09-19T02:07:46.278Z,99093.06
2023-09-19T02:07:59.760Z,99087.66
2023-09-19T02:08:11.779Z,99093.44
2023-09-19T02:08:27.026Z,99092.44
2023-09-19T02:08:39.211Z,99097.50
2023-09-19T02:08:51.322Z,99096.06
2023-09-19T02:09:04.896Z,99101.31
2023-09-19T02:09:17.141Z,99094.16
2023-09-19T02:09:29.181Z,99082.16
2023-09-19T02:09:41.189Z,99096.06
2023-09-19T02:09:53.138Z,99091.47
2023-09-19T02:10:11.210Z,99084.75
2023-09-19T02:10:24.422Z,99088.56
2023-09-19T02:10:36.473Z,99097.41
2023-09-19T02:10:49.921Z,99093.00
2023-09-19T02:11:01.979Z,99088.06
2023-09-19T02:11:14.278Z,99095.97
2023-09-19T02:11:26.368Z,99094.28
2023-09-19T02:11:38.351Z,99089.63
2023-09-19T02:11:50.643Z,99091.09
2023-09-19T02:12:04.745Z,99090.00
2023-09-19T02:12:17.099Z,99095.50
2023-09-19T02:12:29.552Z,99090.91
2023-09-19T02:12:41.517Z,99090.53
2023-09-19T02:12:53.571Z,99095.69
2023-09-19T02:13:05.578Z,99096.53
2023-09-19T02:13:22.808Z,99097.16
2023-09-19T02:13:35.199Z,99092.38
2023-09-19T02:13:47.193Z,99098.91
2023-09-19T02:14:00.482Z,99100.00
2023-09-19T02:14:12.437Z,99095.56
2023-09-19T02:14:24.374Z,99100.44
2023-09-19T02:14:37.139Z,99096.88
2023-09-19T02:14:49.133Z,99096.88
2023-09-19T02:15:01.426Z,99094.56
2023-09-19T02:15:13.580Z,99100.53
2023-09-19T02:15:25.587Z,99094.25
2023-09-19T02:15:38.745Z,99095.41
2023-09-19T02:15:50.912Z,99098.53
2023-09-19T02:16:05.389Z,99093.06
2023-09-19T02:16:18.225Z,99099.78
2023-09-19T02:16:30.403Z,99095.25
2023-09-19T02:16:43.185Z,99097.63
2023-09-19T02:16:55.660Z,99097.19
2023-09-19T02:17:08.142Z,99095.50
2023-09-19T02:17:20.454Z,99095.28
2023-09-19T02:17:32.461Z,99093.59
2023-09-19T02:17:45.175Z,99093.59
2023-09-19T02:17:57.838Z,99098.25
2023-09-19T02:18:09.924Z,99094.78
2023-09-19T02:18:22.899Z,99093.19
2023-09-19T02:18:36.079Z,99096.81
2023-09-19T02:18:52.141Z,99092.75
2023-09-19T02:19:06.986Z,99101.50
2023-09-19T02:19:19.056Z,99102.34
2023-09-19T02:19:31.950Z,99091.69
2023-09-19T02:19:43.940Z,99096.97
2023-09-19T02:19:56.237Z,99096.34
2023-09-19T02:20:11.162Z,99095.72
2023-09-19T02:20:23.422Z,99096.81
2023-09-19T02:20:35.392Z,99100.25
2023-09-19T02:20:47.377Z,99100.25
2023-09-19T02:20:59.757Z,99090.72
2023-09-19T02:21:13.382Z,99089.75
2023-09-19T02:21:25.978Z,99092.38
2023-09-19T02:21:37.975Z,99102.91
2023-09-19T02:21:49.982Z,99095.09
2023-09-19T02:22:07.007Z,99101.22
2023-09-19T02:22:18.983Z,99103.13
2023-09-19T02:22:30.986Z,99094.28
2023-09-19T02:22:43.664Z,99098.59
2023-09-19T02:22:55.802Z,99098.59
2023-09-19T02:23:09.150Z,99101.22
2023-09-19T02:23:21.333Z,99092.38
2023-09-19T02:23:34.554Z,99125.84
2023-09-19T02:23:48.531Z,99102.06
2023-09-19T02:24:00.602Z,99100.59
2023-09-19T02:24:13.631Z,99101.44
2023-09-19T02:24:27.847Z,99099.78
2023-09-19T02:24:39.892Z,99098.44
2023-09-19T02:24:52.115Z,99100.00
2023-09-19T02:25:08.452Z,99100.22
2023-09-19T02:25:20.938Z,99101.88
2023-09-19T02:25:33.276Z,99105.50
2023-09-19T02:25:55.610Z,99107.88
2023-09-19T02:26:07.652Z,99110.31
2023-09-19T02:26:19.870Z,99099.78
2023-09-19T02:26:32.058Z,99107.78
2023-09-19T02:26:44.917Z,99103.63
2023-09-19T02:26:57.941Z,99105.75
2023-09-19T02:27:09.924Z,99108.59
2023-09-19T02:27:21.920Z,99101.44
2023-09-19T02:27:33.901Z,99106.94
2023-09-19T02:27:45.869Z,99102.28
2023-09-19T02:27:59.746Z,99100.25
2023-09-19T02:28:12.794Z,99101.41
2023-09-19T02:28:25.198Z,99103.91
2023-09-19T02:28:37.246Z,99113.78
2023-09-19T02:28:49.348Z,99104.78
2023-09-19T02:29:02.289Z,99108.16
2023-09-19T02:29:15.190Z,99107.69
2023-09-19T02:29:27.811Z,99106.41
2023-09-19T02:29:39.748Z,99101.53
2023-09-19T02:29:52.421Z,99105.34
2023-09-19T02:30:07.243Z,99103.44
2023-09-19T02:30:21.448Z,99105.97
2023-09-19T02:30:34.272Z,99101.53
2023-09-19T02:30:50.000Z,99111.34
2023-09-19T02:31:02.624Z,99107.59
2023-09-19T02:31:15.042Z,99113.69
2023-09-19T02:31:30.147Z,99110.84
2023-09-19T02:31:42.351Z,99112.50
2023-09-19T02:31:57.192Z,99108.69
2023-09-19T02:32:10.686Z,99117.31
2023-09-19T02:32:24.139Z,99111.84
2023-09-19T02:32:39.781Z,99109.22
2023-09-19T02:32:52.079Z,99114.69
2023-09-19T02:33:04.850Z,99108.25
2023-09-19T02:33:18.710Z,99107.53
2023-09-19T02:33:33.646Z,99113.75
2023-09-19T02:33:47.275Z,99111.75
2023-09-19T02:34:01.007Z,99113.28
2023-09-19T02:34:13.176Z,99109.84
2023-09-19T02:34:26.630Z,99113.50
2023-09-19T02:34:40.322Z,99114.13
2023-09-19T02:34:52.933Z,99115.31
2023-09-19T02:35:05.903Z,99122.59
2023-09-19T02:35:20.757Z,99115.66
2023-09-19T02:35:37.352Z,99113.50
2023-09-19T02:35:49.561Z,99113.50
2023-09-19T02:36:02.090Z,99113.50
2023-09-19T02:36:14.475Z,99108.25
2023-09-19T02:36:27.170Z,99111.38
2023-09-19T02:36:39.806Z,99113.50
2023-09-19T02:36:53.532Z,99114.22
2023-09-19T02:37:06.293Z,99113.50
2023-09-19T02:37:20.020Z,99124.91
2023-09-19T02:37:33.693Z,99113.28
2023-09-19T02:37:45.844Z,99115.19
2023-09-19T02:37:57.902Z,99121.41
2023-09-19T02:38:12.456Z,99112.31
2023-09-19T02:38:26.835Z,99124.81
2023-09-19T02:38:38.849Z,99119.19
2023-09-19T02:38:50.951Z,99120.06
2023-09-19T02:39:03.010Z,99120.88
2023-09-19T02:39:15.038Z,99128.78
2023-09-19T02:39:27.133Z,99128.91
2023-09-19T02:39:39.385Z,99125.66
2023-09-19T02:39:51.445Z,99130.28
2023-09-19T02:40:03.762Z,99123.97
2023-09-19T02:40:27.003Z,99123.38
2023-09-19T02:40:39.293Z,99132.09
2023-09-19T02:40:52.157Z,99121.69
2023-09-19T02:41:04.491Z,99117.75
2023-09-19T02:41:16.590Z,99126.94
2023-09-19T02:41:30.480Z,99124.53
2023-09-19T02:41:42.745Z,99117.72
2023-09-19T02:41:54.810Z,99118.78
2023-09-19T02:42:06.956Z,99114.97
2023-09-19T02:42:19.014Z,99127.91
2023-09-19T02:42:31.382Z,99128.16
2023-09-19T02:42:43.865Z,99121.00
2023-09-19T02:42:57.047Z,99120.88
2023-09-19T02:43:10.139Z,99121.63
2023-09-19T02:43:23.000Z,99117.88
2023-09-19T02:43:35.482Z,99121.25
2023-09-19T02:43:48.457Z,99117.66
2023-09-19T02:44:00.523Z,99122.69
2023-09-19T02:44:12.762Z,99122.44
2023-09-19T02:44:24.900Z,99108.34
2023-09-19T02:44:37.082Z,99127.91
2023-09-19T02:44:49.230Z,99113.19
2023-09-19T02:45:01.316Z,99123.53
2023-09-19T02:45:13.733Z,99112.63
2023-09-19T02:45:26.324Z,99115.69
2023-09-19T02:45:38.584Z,99114.72
2023-09-19T02:45:51.212Z,99118.63
2023-09-19T02:46:04.194Z,99119.50
2023-09-19T02:46:17.924Z,99113.38
2023-09-19T02:46:30.133Z,99119.38
2023-09-19T02:46:43.254Z,99123.72
2023-09-19T02:46:55.570Z,99133.16
2023-09-19T02:47:07.866Z,99120.72
2023-09-19T02:47:20.523Z,99117.97
2023-09-19T02:47:32.872Z,99119.75
2023-09-19T02:47:49.060Z,99116.53
2023-09-19T02:48:01.504Z,99124.28
2023-09-19T02:48:13.754Z,99122.22
2023-09-19T02:48:26.576Z,99113.38
2023-09-19T02:48:39.611Z,99128.78
2023-09-19T02:48:51.654Z,99122.06
2023-09-19T02:49:07.692Z,99121.25
2023-09-19T02:49:19.953Z,99115.97
2023-09-19T02:49:32.098Z,99128.53
2023-09-19T02:49:44.178Z,99123.88
2023-09-19T02:49:56.201Z,99120.72
2023-09-19T02:50:10.350Z,99120.28
2023-09-19T02:50:22.621Z,99127.97
2023-09-19T02:50:35.058Z,99126.25
2023-09-19T02:50:53.305Z,99125.19
2023-09-19T02:51:06.030Z,99131.31
2023-09-19T02:51:18.123Z,99118.63
2023-09-19T02:51:30.220Z,99121.56
2023-09-19T02:51:42.304Z,99127.66
2023-09-19T02:51:54.360Z,99132.09
2023-09-19T02:52:08.471Z,99128.72
2023-09-19T02:52:20.539Z,99130.88
2023-09-19T02:52:32.605Z,99130.63
2023-09-19T02:52:45.950Z,99123.72
2023-09-19T02:52:58.000Z,99123.47
2023-09-19T02:53:13.738Z,99121.81
2023-09-19T02:53:25.870Z,99128.97
2023-09-19T02:53:38.142Z,99125.63
2023-09-19T02:53:53.625Z,99122.03
2023-09-19T02:54:05.862Z,99128.00
2023-09-19T02:54:18.524Z,99133.59
2023-09-19T02:54:30.697Z,99130.69
2023-09-19T02:54:46.275Z,99124.91
2023-09-19T02:54:58.293Z,99127.00
2023-09-19T02:55:12.120Z,99129.41
2023-09-19T02:55:24.269Z,99123.91
2023-09-19T02:55:36.480Z,99124.75
2023-09-19T02:55:49.197Z,99129.63
2023-09-19T02:56:02.249Z,99127.97
2023-09-19T02:56:14.631Z,99133.94
2023-09-19T02:56:26.884Z,99137.53
2023-09-19T02:56:38.956Z,99123.06
2023-09-19T02:56:50.979Z,99128.44
2023-09-19T02:57:04.631Z,99131.06